sensor_id;sensor_type;location;lat;lon;timestamp;P1;durP1;ratioP1;P2;durP2;ratioP2
13147;SDS011;6639;50.956;4.242;2023-11-19T00:00:39;6.68;;;3.03;;
13147;SDS011;6639;50.956;4.242;2023-11-19T00:03:06;6.35;;;2.47;;
13147;SDS011;6639;50.956;4.242;2023-11-19T00:05:33;3.13;;;2.55;;
13147;SDS011;6639;50.956;4.242;2023-11-19T00:08:00;7.22;;;2.90;;
13147;SDS011;6639;50.956;4.242;2023-11-19T00:10:27;5.10;;;2.75;;
13147;SDS011;6639;50.956;4.242;2023-11-19T00:12:56;8.98;;;2.90;;
13147;SDS011;6639;50.956;4.242;2023-11-19T00:15:23;6.47;;;2.95;;
13147;SDS011;6639;50.956;4.242;2023-11-19T00:17:50;6.97;;;3.30;;
13147;SDS011;6639;50.956;4.242;2023-11-19T00:20:20;3.83;;;2.53;;
13147;SDS011;6639;50.956;4.242;2023-11-19T00:22:48;8.80;;;3.28;;
13147;SDS011;6639;50.956;4.242;2023-11-19T00:25:17;9.43;;;2.78;;
13147;SDS011;6639;50.956;4.242;2023-11-19T00:27:44;8.90;;;3.30;;
13147;SDS011;6639;50.956;4.242;2023-11-19T00:30:14;9.23;;;3.08;;
13147;SDS011;6639;50.956;4.242;2023-11-19T00:32:42;6.78;;;2.67;;
13147;SDS011;6639;50.956;4.242;2023-11-19T00:35:09;10.25;;;3.35;;
13147;SDS011;6639;50.956;4.242;2023-11-19T00:37:36;12.55;;;3.83;;
13147;SDS011;6639;50.956;4.242;2023-11-19T00:40:03;7.93;;;3.08;;
13147;SDS011;6639;50.956;4.242;2023-11-19T00:42:31;6.95;;;3.50;;
13147;SDS011;6639;50.956;4.242;2023-11-19T00:44:58;14.68;;;3.78;;
13147;SDS011;6639;50.956;4.242;2023-11-19T00:47:28;13.07;;;3.47;;
13147;SDS011;6639;50.956;4.242;2023-11-19T00:49:56;10.90;;;3.55;;
13147;SDS011;6639;50.956;4.242;2023-11-19T00:52:23;11.15;;;4.10;;
13147;SDS011;6639;50.956;4.242;2023-11-19T00:54:50;8.18;;;3.35;;
13147;SDS011;6639;50.956;4.242;2023-11-19T00:57:17;16.75;;;3.55;;
13147;SDS011;6639;50.956;4.242;2023-11-19T00:59:44;11.00;;;3.80;;
13147;SDS011;6639;50.956;4.242;2023-11-19T01:02:12;11.63;;;3.60;;
13147;SDS011;6639;50.956;4.242;2023-11-19T01:04:42;15.13;;;3.85;;
13147;SDS011;6639;50.956;4.242;2023-11-19T01:07:09;11.38;;;3.67;;
13147;SDS011;6639;50.956;4.242;2023-11-19T01:09:38;9.98;;;3.50;;
13147;SDS011;6639;50.956;4.242;2023-11-19T01:12:06;13.25;;;3.80;;
13147;SDS011;6639;50.956;4.242;2023-11-19T01:14:34;9.35;;;2.75;;
13147;SDS011;6639;50.956;4.242;2023-11-19T01:17:01;12.48;;;3.08;;
13147;SDS011;6639;50.956;4.242;2023-11-19T01:19:29;10.65;;;3.30;;
13147;SDS011;6639;50.956;4.242;2023-11-19T01:21:58;11.45;;;3.78;;
13147;SDS011;6639;50.956;4.242;2023-11-19T01:24:25;13.65;;;3.97;;
13147;SDS011;6639;50.956;4.242;2023-11-19T01:26:53;14.73;;;2.92;;
13147;SDS011;6639;50.956;4.242;2023-11-19T01:29:22;9.10;;;3.15;;
13147;SDS011;6639;50.956;4.242;2023-11-19T01:31:49;12.18;;;3.50;;
13147;SDS011;6639;50.956;4.242;2023-11-19T01:34:18;9.52;;;3.63;;
13147;SDS011;6639;50.956;4.242;2023-11-19T01:36:46;12.63;;;3.83;;
13147;SDS011;6639;50.956;4.242;2023-11-19T01:39:15;14.90;;;4.20;;
13147;SDS011;6639;50.956;4.242;2023-11-19T01:41:42;15.15;;;4.25;;
13147;SDS011;6639;50.956;4.242;2023-11-19T01:44:08;14.73;;;4.25;;
13147;SDS011;6639;50.956;4.242;2023-11-19T01:46:37;14.13;;;3.38;;
13147;SDS011;6639;50.956;4.242;2023-11-19T01:49:06;15.73;;;3.38;;
13147;SDS011;6639;50.956;4.242;2023-11-19T01:51:35;12.27;;;3.65;;
13147;SDS011;6639;50.956;4.242;2023-11-19T01:54:02;12.15;;;3.67;;
13147;SDS011;6639;50.956;4.242;2023-11-19T01:56:31;16.02;;;3.33;;
13147;SDS011;6639;50.956;4.242;2023-11-19T01:58:58;9.77;;;3.20;;
13147;SDS011;6639;50.956;4.242;2023-11-19T02:01:26;14.38;;;3.65;;
13147;SDS011;6639;50.956;4.242;2023-11-19T02:03:54;12.13;;;3.03;;
13147;SDS011;6639;50.956;4.242;2023-11-19T02:06:23;11.32;;;3.30;;
13147;SDS011;6639;50.956;4.242;2023-11-19T02:08:51;14.57;;;3.90;;
13147;SDS011;6639;50.956;4.242;2023-11-19T02:11:18;11.77;;;3.33;;
13147;SDS011;6639;50.956;4.242;2023-11-19T02:13:47;13.52;;;3.63;;
13147;SDS011;6639;50.956;4.242;2023-11-19T02:16:14;13.80;;;4.07;;
13147;SDS011;6639;50.956;4.242;2023-11-19T02:18:41;15.13;;;3.85;;
13147;SDS011;6639;50.956;4.242;2023-11-19T02:21:08;19.42;;;3.70;;
13147;SDS011;6639;50.956;4.242;2023-11-19T02:23:35;15.30;;;4.50;;
13147;SDS011;6639;50.956;4.242;2023-11-19T02:26:09;17.05;;;3.53;;
13147;SDS011;6639;50.956;4.242;2023-11-19T02:28:42;19.35;;;4.28;;
13147;SDS011;6639;50.956;4.242;2023-11-19T02:31:09;19.38;;;4.10;;
13147;SDS011;6639;50.956;4.242;2023-11-19T02:33:37;10.77;;;3.58;;
13147;SDS011;6639;50.956;4.242;2023-11-19T02:36:04;18.42;;;4.75;;
13147;SDS011;6639;50.956;4.242;2023-11-19T02:38:32;18.48;;;5.10;;
13147;SDS011;6639;50.956;4.242;2023-11-19T02:41:01;16.10;;;3.95;;
13147;SDS011;6639;50.956;4.242;2023-11-19T02:43:30;15.05;;;4.28;;
13147;SDS011;6639;50.956;4.242;2023-11-19T02:45:59;16.17;;;3.65;;
13147;SDS011;6639;50.956;4.242;2023-11-19T02:48:27;13.68;;;4.10;;
13147;SDS011;6639;50.956;4.242;2023-11-19T02:50:55;14.32;;;4.10;;
13147;SDS011;6639;50.956;4.242;2023-11-19T02:53:24;17.88;;;3.88;;
13147;SDS011;6639;50.956;4.242;2023-11-19T02:55:52;20.33;;;3.75;;
13147;SDS011;6639;50.956;4.242;2023-11-19T02:58:27;21.67;;;4.57;;
13147;SDS011;6639;50.956;4.242;2023-11-19T03:00:54;17.50;;;4.20;;
13147;SDS011;6639;50.956;4.242;2023-11-19T03:03:26;20.30;;;4.75;;
13147;SDS011;6639;50.956;4.242;2023-11-19T03:06:03;24.08;;;5.20;;
13147;SDS011;6639;50.956;4.242;2023-11-19T03:08:35;15.07;;;4.30;;
13147;SDS011;6639;50.956;4.242;2023-11-19T03:11:01;18.52;;;4.13;;
13147;SDS011;6639;50.956;4.242;2023-11-19T03:13:30;14.02;;;4.57;;
13147;SDS011;6639;50.956;4.242;2023-11-19T03:15:57;15.23;;;4.35;;
13147;SDS011;6639;50.956;4.242;2023-11-19T03:18:25;14.52;;;3.88;;
13147;SDS011;6639;50.956;4.242;2023-11-19T03:20:53;18.40;;;3.97;;
13147;SDS011;6639;50.956;4.242;2023-11-19T03:23:22;18.48;;;3.83;;
13147;SDS011;6639;50.956;4.242;2023-11-19T03:25:49;14.27;;;3.40;;
13147;SDS011;6639;50.956;4.242;2023-11-19T03:28:16;18.17;;;4.00;;
13147;SDS011;6639;50.956;4.242;2023-11-19T03:30:43;12.77;;;4.10;;
13147;SDS011;6639;50.956;4.242;2023-11-19T03:33:13;18.00;;;4.45;;
13147;SDS011;6639;50.956;4.242;2023-11-19T03:35:42;18.83;;;4.63;;
13147;SDS011;6639;50.956;4.242;2023-11-19T03:38:09;17.45;;;4.10;;
13147;SDS011;6639;50.956;4.242;2023-11-19T03:40:36;15.70;;;3.78;;
13147;SDS011;6639;50.956;4.242;2023-11-19T03:43:04;13.57;;;3.58;;
13147;SDS011;6639;50.956;4.242;2023-11-19T03:45:31;15.48;;;3.67;;
13147;SDS011;6639;50.956;4.242;2023-11-19T03:47:58;11.15;;;3.45;;
13147;SDS011;6639;50.956;4.242;2023-11-19T03:50:25;17.75;;;4.88;;
13147;SDS011;6639;50.956;4.242;2023-11-19T03:52:54;16.45;;;4.45;;
13147;SDS011;6639;50.956;4.242;2023-11-19T03:55:21;18.55;;;4.18;;
13147;SDS011;6639;50.956;4.242;2023-11-19T03:57:48;16.77;;;4.85;;
13147;SDS011;6639;50.956;4.242;2023-11-19T04:00:16;16.65;;;3.75;;
13147;SDS011;6639;50.956;4.242;2023-11-19T04:02:46;19.88;;;4.45;;
13147;SDS011;6639;50.956;4.242;2023-11-19T04:05:13;17.55;;;4.43;;
13147;SDS011;6639;50.956;4.242;2023-11-19T04:07:40;20.08;;;4.78;;
13147;SDS011;6639;50.956;4.242;2023-11-19T04:10:09;18.65;;;4.38;;
13147;SDS011;6639;50.956;4.242;2023-11-19T04:12:36;16.92;;;4.55;;
13147;SDS011;6639;50.956;4.242;2023-11-19T04:15:03;22.92;;;4.70;;
13147;SDS011;6639;50.956;4.242;2023-11-19T04:17:31;16.65;;;4.80;;
13147;SDS011;6639;50.956;4.242;2023-11-19T04:19:58;19.02;;;4.95;;
13147;SDS011;6639;50.956;4.242;2023-11-19T04:22:25;17.42;;;4.40;;
13147;SDS011;6639;50.956;4.242;2023-11-19T04:24:52;29.20;;;6.18;;
13147;SDS011;6639;50.956;4.242;2023-11-19T04:27:21;18.40;;;3.72;;
13147;SDS011;6639;50.956;4.242;2023-11-19T04:29:48;20.92;;;4.55;;
13147;SDS011;6639;50.956;4.242;2023-11-19T04:32:16;23.50;;;5.47;;
13147;SDS011;6639;50.956;4.242;2023-11-19T04:34:43;23.33;;;5.25;;
13147;SDS011;6639;50.956;4.242;2023-11-19T04:37:10;23.98;;;5.25;;
13147;SDS011;6639;50.956;4.242;2023-11-19T04:39:37;18.38;;;4.38;;
13147;SDS011;6639;50.956;4.242;2023-11-19T04:42:05;25.42;;;5.57;;
13147;SDS011;6639;50.956;4.242;2023-11-19T04:44:34;19.52;;;4.88;;
13147;SDS011;6639;50.956;4.242;2023-11-19T04:47:01;19.58;;;4.78;;
13147;SDS011;6639;50.956;4.242;2023-11-19T04:49:28;26.75;;;5.00;;
13147;SDS011;6639;50.956;4.242;2023-11-19T04:51:55;16.77;;;4.82;;
13147;SDS011;6639;50.956;4.242;2023-11-19T04:54:22;22.23;;;4.40;;
13147;SDS011;6639;50.956;4.242;2023-11-19T04:56:50;18.63;;;5.40;;
13147;SDS011;6639;50.956;4.242;2023-11-19T04:59:17;24.63;;;5.65;;
13147;SDS011;6639;50.956;4.242;2023-11-19T05:01:48;19.70;;;4.15;;
13147;SDS011;6639;50.956;4.242;2023-11-19T05:04:15;14.55;;;4.68;;
13147;SDS011;6639;50.956;4.242;2023-11-19T05:06:46;23.17;;;6.00;;
13147;SDS011;6639;50.956;4.242;2023-11-19T05:09:13;19.88;;;4.50;;
13147;SDS011;6639;50.956;4.242;2023-11-19T05:11:40;20.08;;;5.38;;
13147;SDS011;6639;50.956;4.242;2023-11-19T05:14:08;24.80;;;5.45;;
13147;SDS011;6639;50.956;4.242;2023-11-19T05:16:35;23.67;;;5.68;;
13147;SDS011;6639;50.956;4.242;2023-11-19T05:19:07;20.90;;;5.20;;
13147;SDS011;6639;50.956;4.242;2023-11-19T05:21:37;19.27;;;5.05;;
13147;SDS011;6639;50.956;4.242;2023-11-19T05:24:04;19.40;;;5.05;;
13147;SDS011;6639;50.956;4.242;2023-11-19T05:26:31;19.95;;;5.78;;
13147;SDS011;6639;50.956;4.242;2023-11-19T05:28:58;18.05;;;4.72;;
13147;SDS011;6639;50.956;4.242;2023-11-19T05:31:25;21.13;;;5.63;;
13147;SDS011;6639;50.956;4.242;2023-11-19T05:33:52;27.20;;;5.80;;
13147;SDS011;6639;50.956;4.242;2023-11-19T05:36:20;19.73;;;5.63;;
13147;SDS011;6639;50.956;4.242;2023-11-19T05:38:47;25.88;;;6.30;;
13147;SDS011;6639;50.956;4.242;2023-11-19T05:41:14;20.75;;;6.13;;
13147;SDS011;6639;50.956;4.242;2023-11-19T05:43:44;21.65;;;5.03;;
13147;SDS011;6639;50.956;4.242;2023-11-19T05:46:11;24.42;;;6.68;;
13147;SDS011;6639;50.956;4.242;2023-11-19T05:48:38;22.20;;;5.05;;
13147;SDS011;6639;50.956;4.242;2023-11-19T05:51:05;22.77;;;5.38;;
13147;SDS011;6639;50.956;4.242;2023-11-19T05:53:35;22.48;;;5.80;;
13147;SDS011;6639;50.956;4.242;2023-11-19T05:56:01;15.18;;;4.65;;
13147;SDS011;6639;50.956;4.242;2023-11-19T05:58:29;25.60;;;6.15;;
13147;SDS011;6639;50.956;4.242;2023-11-19T06:00:57;19.17;;;4.82;;
13147;SDS011;6639;50.956;4.242;2023-11-19T06:03:26;21.50;;;4.90;;
13147;SDS011;6639;50.956;4.242;2023-11-19T06:05:53;22.00;;;4.80;;
13147;SDS011;6639;50.956;4.242;2023-11-19T06:08:20;21.02;;;6.10;;
13147;SDS011;6639;50.956;4.242;2023-11-19T06:10:49;19.30;;;4.93;;
13147;SDS011;6639;50.956;4.242;2023-11-19T06:13:16;21.45;;;6.03;;
13147;SDS011;6639;50.956;4.242;2023-11-19T06:15:44;22.88;;;5.55;;
13147;SDS011;6639;50.956;4.242;2023-11-19T06:18:11;22.00;;;5.70;;
13147;SDS011;6639;50.956;4.242;2023-11-19T06:20:40;22.35;;;6.10;;
13147;SDS011;6639;50.956;4.242;2023-11-19T06:23:07;20.33;;;6.13;;
13147;SDS011;6639;50.956;4.242;2023-11-19T06:25:34;26.20;;;5.65;;
13147;SDS011;6639;50.956;4.242;2023-11-19T06:28:03;33.17;;;6.15;;
13147;SDS011;6639;50.956;4.242;2023-11-19T06:30:30;21.50;;;5.07;;
13147;SDS011;6639;50.956;4.242;2023-11-19T06:32:57;30.08;;;5.68;;
13147;SDS011;6639;50.956;4.242;2023-11-19T06:35:24;19.92;;;5.38;;
13147;SDS011;6639;50.956;4.242;2023-11-19T06:37:51;19.38;;;5.05;;
13147;SDS011;6639;50.956;4.242;2023-11-19T06:40:18;20.20;;;4.85;;
13147;SDS011;6639;50.956;4.242;2023-11-19T06:42:45;31.73;;;5.80;;
13147;SDS011;6639;50.956;4.242;2023-11-19T06:45:14;26.27;;;6.10;;
13147;SDS011;6639;50.956;4.242;2023-11-19T06:47:41;21.30;;;4.78;;
13147;SDS011;6639;50.956;4.242;2023-11-19T06:50:08;18.90;;;6.00;;
13147;SDS011;6639;50.956;4.242;2023-11-19T06:52:37;28.58;;;5.60;;
13147;SDS011;6639;50.956;4.242;2023-11-19T06:55:05;22.27;;;5.78;;
13147;SDS011;6639;50.956;4.242;2023-11-19T06:57:32;25.20;;;5.80;;
13147;SDS011;6639;50.956;4.242;2023-11-19T07:00:00;20.75;;;5.40;;
13147;SDS011;6639;50.956;4.242;2023-11-19T07:02:28;35.05;;;6.22;;
13147;SDS011;6639;50.956;4.242;2023-11-19T07:04:55;26.73;;;5.85;;
13147;SDS011;6639;50.956;4.242;2023-11-19T07:07:22;19.13;;;5.50;;
13147;SDS011;6639;50.956;4.242;2023-11-19T07:09:50;17.80;;;4.78;;
13147;SDS011;6639;50.956;4.242;2023-11-19T07:12:17;17.23;;;4.65;;
13147;SDS011;6639;50.956;4.242;2023-11-19T07:14:44;24.30;;;6.22;;
13147;SDS011;6639;50.956;4.242;2023-11-19T07:17:11;24.83;;;5.53;;
13147;SDS011;6639;50.956;4.242;2023-11-19T07:19:40;31.33;;;6.30;;
13147;SDS011;6639;50.956;4.242;2023-11-19T07:22:07;32.17;;;6.50;;
13147;SDS011;6639;50.956;4.242;2023-11-19T07:24:34;23.17;;;5.97;;
13147;SDS011;6639;50.956;4.242;2023-11-19T07:27:01;22.52;;;5.55;;
13147;SDS011;6639;50.956;4.242;2023-11-19T07:29:29;20.67;;;5.63;;
13147;SDS011;6639;50.956;4.242;2023-11-19T07:31:56;25.73;;;6.28;;
13147;SDS011;6639;50.956;4.242;2023-11-19T07:34:23;21.73;;;5.03;;
13147;SDS011;6639;50.956;4.242;2023-11-19T07:36:52;20.63;;;5.50;;
13147;SDS011;6639;50.956;4.242;2023-11-19T07:39:20;23.02;;;5.22;;
13147;SDS011;6639;50.956;4.242;2023-11-19T07:41:47;23.85;;;5.80;;
13147;SDS011;6639;50.956;4.242;2023-11-19T07:44:14;23.35;;;5.00;;
13147;SDS011;6639;50.956;4.242;2023-11-19T07:46:41;26.63;;;6.30;;
13147;SDS011;6639;50.956;4.242;2023-11-19T07:49:10;21.42;;;5.57;;
13147;SDS011;6639;50.956;4.242;2023-11-19T07:51:36;21.42;;;5.20;;
13147;SDS011;6639;50.956;4.242;2023-11-19T07:54:05;21.50;;;5.45;;
13147;SDS011;6639;50.956;4.242;2023-11-19T07:56:34;17.55;;;5.22;;
13147;SDS011;6639;50.956;4.242;2023-11-19T07:59:01;24.08;;;5.63;;
13147;SDS011;6639;50.956;4.242;2023-11-19T08:01:28;21.58;;;5.95;;
13147;SDS011;6639;50.956;4.242;2023-11-19T08:03:56;20.63;;;5.15;;
13147;SDS011;6639;50.956;4.242;2023-11-19T08:06:23;21.30;;;5.20;;
13147;SDS011;6639;50.956;4.242;2023-11-19T08:08:50;26.83;;;5.88;;
13147;SDS011;6639;50.956;4.242;2023-11-19T08:11:19;20.10;;;4.88;;
13147;SDS011;6639;50.956;4.242;2023-11-19T08:13:46;20.52;;;5.32;;
13147;SDS011;6639;50.956;4.242;2023-11-19T08:16:17;22.95;;;5.78;;
13147;SDS011;6639;50.956;4.242;2023-11-19T08:18:44;20.20;;;5.88;;
13147;SDS011;6639;50.956;4.242;2023-11-19T08:21:11;24.15;;;4.88;;
13147;SDS011;6639;50.956;4.242;2023-11-19T08:23:40;27.45;;;5.15;;
13147;SDS011;6639;50.956;4.242;2023-11-19T08:26:07;13.18;;;3.35;;
13147;SDS011;6639;50.956;4.242;2023-11-19T08:28:36;21.25;;;4.47;;
13147;SDS011;6639;50.956;4.242;2023-11-19T08:31:04;19.67;;;4.60;;
13147;SDS011;6639;50.956;4.242;2023-11-19T08:33:31;17.83;;;4.65;;
13147;SDS011;6639;50.956;4.242;2023-11-19T08:35:58;21.52;;;7.13;;
13147;SDS011;6639;50.956;4.242;2023-11-19T08:38:25;19.48;;;4.43;;
13147;SDS011;6639;50.956;4.242;2023-11-19T08:40:52;17.90;;;4.78;;
13147;SDS011;6639;50.956;4.242;2023-11-19T08:43:24;18.58;;;4.85;;
13147;SDS011;6639;50.956;4.242;2023-11-19T08:45:53;16.67;;;4.60;;
13147;SDS011;6639;50.956;4.242;2023-11-19T08:48:20;17.83;;;4.90;;
13147;SDS011;6639;50.956;4.242;2023-11-19T08:50:47;18.52;;;5.03;;
13147;SDS011;6639;50.956;4.242;2023-11-19T08:53:14;17.25;;;5.10;;
13147;SDS011;6639;50.956;4.242;2023-11-19T08:55:41;15.82;;;4.50;;
13147;SDS011;6639;50.956;4.242;2023-11-19T08:58:08;14.18;;;5.47;;
13147;SDS011;6639;50.956;4.242;2023-11-19T09:00:35;19.55;;;4.90;;
13147;SDS011;6639;50.956;4.242;2023-11-19T09:03:04;18.17;;;4.53;;
13147;SDS011;6639;50.956;4.242;2023-11-19T09:05:32;18.02;;;4.47;;
13147;SDS011;6639;50.956;4.242;2023-11-19T09:07:58;14.15;;;4.07;;
13147;SDS011;6639;50.956;4.242;2023-11-19T09:10:26;25.35;;;4.97;;
13147;SDS011;6639;50.956;4.242;2023-11-19T09:12:54;19.58;;;5.47;;
13147;SDS011;6639;50.956;4.242;2023-11-19T09:15:21;19.20;;;4.35;;
13147;SDS011;6639;50.956;4.242;2023-11-19T09:17:49;17.27;;;4.68;;
13147;SDS011;6639;50.956;4.242;2023-11-19T09:20:17;15.55;;;4.15;;
13147;SDS011;6639;50.956;4.242;2023-11-19T09:22:44;15.98;;;4.15;;
13147;SDS011;6639;50.956;4.242;2023-11-19T09:25:12;10.25;;;3.45;;
13147;SDS011;6639;50.956;4.242;2023-11-19T09:27:42;16.17;;;5.07;;
13147;SDS011;6639;50.956;4.242;2023-11-19T09:30:09;15.52;;;4.40;;
13147;SDS011;6639;50.956;4.242;2023-11-19T09:32:37;14.23;;;4.13;;
13147;SDS011;6639;50.956;4.242;2023-11-19T09:35:05;16.13;;;4.30;;
13147;SDS011;6639;50.956;4.242;2023-11-19T09:37:34;14.77;;;4.25;;
13147;SDS011;6639;50.956;4.242;2023-11-19T09:40:02;16.55;;;4.10;;
13147;SDS011;6639;50.956;4.242;2023-11-19T09:42:29;11.23;;;3.50;;
13147;SDS011;6639;50.956;4.242;2023-11-19T09:45:04;12.93;;;3.72;;
13147;SDS011;6639;50.956;4.242;2023-11-19T09:47:38;14.30;;;3.58;;
13147;SDS011;6639;50.956;4.242;2023-11-19T09:50:06;16.73;;;4.22;;
13147;SDS011;6639;50.956;4.242;2023-11-19T09:52:36;13.57;;;3.92;;
13147;SDS011;6639;50.956;4.242;2023-11-19T09:55:03;17.70;;;4.20;;
13147;SDS011;6639;50.956;4.242;2023-11-19T09:57:30;10.18;;;3.67;;
13147;SDS011;6639;50.956;4.242;2023-11-19T10:00:02;14.10;;;3.15;;
13147;SDS011;6639;50.956;4.242;2023-11-19T10:02:33;15.23;;;4.15;;
13147;SDS011;6639;50.956;4.242;2023-11-19T10:05:02;15.60;;;3.72;;
13147;SDS011;6639;50.956;4.242;2023-11-19T10:07:32;17.95;;;4.78;;
13147;SDS011;6639;50.956;4.242;2023-11-19T10:10:01;11.45;;;3.45;;
13147;SDS011;6639;50.956;4.242;2023-11-19T10:12:30;15.05;;;4.28;;
13147;SDS011;6639;50.956;4.242;2023-11-19T10:14:58;17.23;;;4.30;;
13147;SDS011;6639;50.956;4.242;2023-11-19T10:17:28;16.55;;;4.10;;
13147;SDS011;6639;50.956;4.242;2023-11-19T10:19:58;12.55;;;3.50;;
13147;SDS011;6639;50.956;4.242;2023-11-19T10:22:26;16.05;;;4.45;;
13147;SDS011;6639;50.956;4.242;2023-11-19T10:24:54;16.08;;;4.47;;
13147;SDS011;6639;50.956;4.242;2023-11-19T10:27:24;12.00;;;4.15;;
13147;SDS011;6639;50.956;4.242;2023-11-19T10:29:52;13.23;;;3.22;;
13147;SDS011;6639;50.956;4.242;2023-11-19T10:32:19;10.00;;;3.88;;
13147;SDS011;6639;50.956;4.242;2023-11-19T10:34:46;12.55;;;3.60;;
13147;SDS011;6639;50.956;4.242;2023-11-19T10:37:26;16.25;;;4.63;;
13147;SDS011;6639;50.956;4.242;2023-11-19T10:39:57;18.05;;;4.57;;
13147;SDS011;6639;50.956;4.242;2023-11-19T10:42:26;15.27;;;4.65;;
13147;SDS011;6639;50.956;4.242;2023-11-19T10:44:54;16.20;;;3.85;;
13147;SDS011;6639;50.956;4.242;2023-11-19T10:47:22;21.08;;;5.00;;
13147;SDS011;6639;50.956;4.242;2023-11-19T10:49:49;15.00;;;4.45;;
13147;SDS011;6639;50.956;4.242;2023-11-19T10:52:17;14.13;;;4.28;;
13147;SDS011;6639;50.956;4.242;2023-11-19T10:54:47;14.57;;;4.15;;
13147;SDS011;6639;50.956;4.242;2023-11-19T10:57:18;20.42;;;5.10;;
13147;SDS011;6639;50.956;4.242;2023-11-19T10:59:50;15.80;;;4.22;;
13147;SDS011;6639;50.956;4.242;2023-11-19T11:02:21;11.70;;;3.95;;
13147;SDS011;6639;50.956;4.242;2023-11-19T11:04:51;14.95;;;3.60;;
13147;SDS011;6639;50.956;4.242;2023-11-19T11:07:20;17.42;;;4.45;;
13147;SDS011;6639;50.956;4.242;2023-11-19T11:09:51;11.15;;;3.95;;
13147;SDS011;6639;50.956;4.242;2023-11-19T11:12:18;12.80;;;4.10;;
13147;SDS011;6639;50.956;4.242;2023-11-19T11:14:50;15.48;;;4.15;;
13147;SDS011;6639;50.956;4.242;2023-11-19T11:17:19;15.00;;;4.00;;
13147;SDS011;6639;50.956;4.242;2023-11-19T11:19:50;11.25;;;3.92;;
13147;SDS011;6639;50.956;4.242;2023-11-19T11:22:17;11.73;;;3.95;;
13147;SDS011;6639;50.956;4.242;2023-11-19T11:24:53;12.52;;;3.75;;
13147;SDS011;6639;50.956;4.242;2023-11-19T11:27:43;9.10;;;2.97;;
13147;SDS011;6639;50.956;4.242;2023-11-19T11:30:24;14.95;;;4.57;;
13147;SDS011;6639;50.956;4.242;2023-11-19T11:33:02;17.42;;;3.92;;
13147;SDS011;6639;50.956;4.242;2023-11-19T11:35:37;14.77;;;4.07;;
13147;SDS011;6639;50.956;4.242;2023-11-19T11:38:13;16.23;;;4.57;;
13147;SDS011;6639;50.956;4.242;2023-11-19T11:40:42;16.35;;;3.67;;
13147;SDS011;6639;50.956;4.242;2023-11-19T11:43:43;17.00;;;3.40;;
13147;SDS011;6639;50.956;4.242;2023-11-19T11:49:13;17.73;;;4.50;;
13147;SDS011;6639;50.956;4.242;2023-11-19T11:51:57;16.30;;;4.50;;
13147;SDS011;6639;50.956;4.242;2023-11-19T11:54:29;13.93;;;4.15;;
13147;SDS011;6639;50.956;4.242;2023-11-19T11:57:05;14.90;;;3.72;;
13147;SDS011;6639;50.956;4.242;2023-11-19T11:59:45;14.15;;;4.22;;
13147;SDS011;6639;50.956;4.242;2023-11-19T12:02:13;12.77;;;5.28;;
13147;SDS011;6639;50.956;4.242;2023-11-19T12:04:43;13.80;;;4.03;;
13147;SDS011;6639;50.956;4.242;2023-11-19T12:07:13;13.10;;;4.00;;
13147;SDS011;6639;50.956;4.242;2023-11-19T12:09:45;14.52;;;4.43;;
13147;SDS011;6639;50.956;4.242;2023-11-19T12:12:21;15.95;;;4.47;;
13147;SDS011;6639;50.956;4.242;2023-11-19T12:17:37;19.48;;;4.20;;
13147;SDS011;6639;50.956;4.242;2023-11-19T12:20:19;13.18;;;4.38;;
13147;SDS011;6639;50.956;4.242;2023-11-19T12:22:48;12.10;;;4.10;;
13147;SDS011;6639;50.956;4.242;2023-11-19T12:25:16;15.25;;;3.78;;
13147;SDS011;6639;50.956;4.242;2023-11-19T12:27:45;14.80;;;4.07;;
13147;SDS011;6639;50.956;4.242;2023-11-19T12:30:16;11.52;;;3.42;;
13147;SDS011;6639;50.956;4.242;2023-11-19T12:32:44;15.55;;;3.83;;
13147;SDS011;6639;50.956;4.242;2023-11-19T12:35:12;10.52;;;3.90;;
13147;SDS011;6639;50.956;4.242;2023-11-19T12:37:42;13.15;;;4.05;;
13147;SDS011;6639;50.956;4.242;2023-11-19T12:40:16;10.35;;;3.33;;
13147;SDS011;6639;50.956;4.242;2023-11-19T12:42:44;15.10;;;3.50;;
13147;SDS011;6639;50.956;4.242;2023-11-19T12:45:12;11.73;;;3.42;;
13147;SDS011;6639;50.956;4.242;2023-11-19T12:47:39;14.88;;;3.95;;
13147;SDS011;6639;50.956;4.242;2023-11-19T12:50:07;17.75;;;4.10;;
13147;SDS011;6639;50.956;4.242;2023-11-19T12:52:35;13.02;;;3.80;;
13147;SDS011;6639;50.956;4.242;2023-11-19T12:55:06;19.67;;;4.82;;
13147;SDS011;6639;50.956;4.242;2023-11-19T12:57:51;15.20;;;4.18;;
13147;SDS011;6639;50.956;4.242;2023-11-19T13:00:19;15.90;;;4.22;;
13147;SDS011;6639;50.956;4.242;2023-11-19T13:02:50;15.75;;;3.83;;
13147;SDS011;6639;50.956;4.242;2023-11-19T13:05:22;17.98;;;3.70;;
13147;SDS011;6639;50.956;4.242;2023-11-19T13:08:00;15.95;;;4.38;;
13147;SDS011;6639;50.956;4.242;2023-11-19T13:10:31;18.98;;;4.15;;
13147;SDS011;6639;50.956;4.242;2023-11-19T13:13:02;17.75;;;5.10;;
13147;SDS011;6639;50.956;4.242;2023-11-19T13:15:31;12.82;;;4.78;;
13147;SDS011;6639;50.956;4.242;2023-11-19T13:17:58;12.10;;;4.25;;
13147;SDS011;6639;50.956;4.242;2023-11-19T13:20:26;17.33;;;5.13;;
13147;SDS011;6639;50.956;4.242;2023-11-19T13:22:53;11.43;;;4.18;;
13147;SDS011;6639;50.956;4.242;2023-11-19T13:25:21;17.90;;;5.13;;
13147;SDS011;6639;50.956;4.242;2023-11-19T13:27:50;18.95;;;4.60;;
13147;SDS011;6639;50.956;4.242;2023-11-19T13:30:17;21.10;;;4.72;;
13147;SDS011;6639;50.956;4.242;2023-11-19T13:32:44;14.50;;;4.85;;
13147;SDS011;6639;50.956;4.242;2023-11-19T13:35:11;16.08;;;4.28;;
13147;SDS011;6639;50.956;4.242;2023-11-19T13:37:39;16.63;;;4.57;;
13147;SDS011;6639;50.956;4.242;2023-11-19T13:40:07;18.75;;;4.85;;
13147;SDS011;6639;50.956;4.242;2023-11-19T13:42:36;19.25;;;5.15;;
13147;SDS011;6639;50.956;4.242;2023-11-19T13:45:09;15.02;;;4.60;;
13147;SDS011;6639;50.956;4.242;2023-11-19T13:47:38;17.33;;;3.90;;
13147;SDS011;6639;50.956;4.242;2023-11-19T13:50:07;15.15;;;3.97;;
13147;SDS011;6639;50.956;4.242;2023-11-19T13:52:35;17.08;;;5.00;;
13147;SDS011;6639;50.956;4.242;2023-11-19T13:55:04;16.90;;;4.20;;
13147;SDS011;6639;50.956;4.242;2023-11-19T13:57:33;13.55;;;3.53;;
13147;SDS011;6639;50.956;4.242;2023-11-19T14:00:00;15.70;;;4.00;;
13147;SDS011;6639;50.956;4.242;2023-11-19T14:02:32;15.98;;;4.22;;
13147;SDS011;6639;50.956;4.242;2023-11-19T14:04:59;18.00;;;4.35;;
13147;SDS011;6639;50.956;4.242;2023-11-19T14:07:30;13.70;;;3.80;;
13147;SDS011;6639;50.956;4.242;2023-11-19T14:09:58;19.23;;;3.92;;
13147;SDS011;6639;50.956;4.242;2023-11-19T14:12:25;17.90;;;5.13;;
13147;SDS011;6639;50.956;4.242;2023-11-19T14:14:52;11.07;;;3.92;;
13147;SDS011;6639;50.956;4.242;2023-11-19T14:17:19;18.73;;;4.43;;
13147;SDS011;6639;50.956;4.242;2023-11-19T14:19:48;14.07;;;4.05;;
13147;SDS011;6639;50.956;4.242;2023-11-19T14:22:15;16.98;;;4.22;;
13147;SDS011;6639;50.956;4.242;2023-11-19T14:24:42;18.83;;;5.30;;
13147;SDS011;6639;50.956;4.242;2023-11-19T14:27:10;14.85;;;4.43;;
13147;SDS011;6639;50.956;4.242;2023-11-19T14:29:38;15.50;;;5.10;;
13147;SDS011;6639;50.956;4.242;2023-11-19T14:32:06;20.15;;;5.28;;
13147;SDS011;6639;50.956;4.242;2023-11-19T14:34:36;17.58;;;5.07;;
13147;SDS011;6639;50.956;4.242;2023-11-19T14:37:04;15.70;;;3.92;;
13147;SDS011;6639;50.956;4.242;2023-11-19T14:39:32;16.48;;;4.25;;
13147;SDS011;6639;50.956;4.242;2023-11-19T14:41:59;20.67;;;4.43;;
13147;SDS011;6639;50.956;4.242;2023-11-19T14:44:29;16.38;;;4.38;;
13147;SDS011;6639;50.956;4.242;2023-11-19T14:46:56;11.60;;;4.15;;
13147;SDS011;6639;50.956;4.242;2023-11-19T14:49:24;19.52;;;3.97;;
13147;SDS011;6639;50.956;4.242;2023-11-19T14:51:52;16.67;;;4.30;;
13147;SDS011;6639;50.956;4.242;2023-11-19T14:54:21;12.18;;;4.57;;
13147;SDS011;6639;50.956;4.242;2023-11-19T14:56:49;13.88;;;3.97;;
13147;SDS011;6639;50.956;4.242;2023-11-19T14:59:17;20.50;;;4.40;;
13147;SDS011;6639;50.956;4.242;2023-11-19T15:01:44;21.27;;;5.55;;